Glendale, Colorado
Current Conditions -  °F | °C
As of 9:53 PM on Sunday 21 Dec 2014 (Local Time) from KAPA Reporting Station
Light Rain Light Rain  
Wind Chill: 28°   Ceiling: 1900
Heat Index: 37°   Visibility: 4mi
Dew Point: 35°   Wind: 16mph
Humidity: 93%   Direction: 320°NW
Pressure: 29.66"   Gusts: 23mph
Location:  39.6814°N, 104.925°W
Report Text: KAPA 220453Z 32014G20KT 4SM -RA BR SCT010 OVC019 03/02 A2966 RMK AO2 SLP042 P0008 T00280017
Loading
Personal Weather Stations






























Interactive Weather Map New forecast layout! Learn more

10-Day Weather Forecast

Advertisements
Track Severe Weather on mobile